sensor_id;sensor_type;location;lat;lon;timestamp;P1;durP1;ratioP1;P2;durP2;ratioP2
25351;SDS011;13304;48.464;8.712;2023-06-22T00:02:15;9.35;;;6.97;;
25351;SDS011;13304;48.464;8.712;2023-06-22T00:04:41;9.88;;;6.88;;
25351;SDS011;13304;48.464;8.712;2023-06-22T00:07:07;11.82;;;7.50;;
25351;SDS011;13304;48.464;8.712;2023-06-22T00:09:35;14.52;;;7.57;;
25351;SDS011;13304;48.464;8.712;2023-06-22T00:12:01;13.40;;;7.30;;
25351;SDS011;13304;48.464;8.712;2023-06-22T00:14:27;10.25;;;6.45;;
25351;SDS011;13304;48.464;8.712;2023-06-22T00:17:00;12.73;;;7.20;;
25351;SDS011;13304;48.464;8.712;2023-06-22T00:19:26;9.07;;;6.90;;
25351;SDS011;13304;48.464;8.712;2023-06-22T00:21:52;10.30;;;7.10;;
25351;SDS011;13304;48.464;8.712;2023-06-22T00:24:20;11.67;;;6.80;;
25351;SDS011;13304;48.464;8.712;2023-06-22T00:26:47;11.18;;;7.63;;
25351;SDS011;13304;48.464;8.712;2023-06-22T00:29:13;13.65;;;7.70;;
25351;SDS011;13304;48.464;8.712;2023-06-22T00:31:40;10.10;;;7.35;;
25351;SDS011;13304;48.464;8.712;2023-06-22T00:34:06;13.15;;;7.38;;
25351;SDS011;13304;48.464;8.712;2023-06-22T00:36:34;9.88;;;6.93;;
25351;SDS011;13304;48.464;8.712;2023-06-22T00:39:00;14.07;;;7.45;;
25351;SDS011;13304;48.464;8.712;2023-06-22T00:41:26;14.73;;;6.90;;
25351;SDS011;13304;48.464;8.712;2023-06-22T00:43:53;11.10;;;6.95;;
25351;SDS011;13304;48.464;8.712;2023-06-22T00:46:20;15.27;;;7.63;;
25351;SDS011;13304;48.464;8.712;2023-06-22T00:48:47;10.95;;;7.20;;
25351;SDS011;13304;48.464;8.712;2023-06-22T00:51:15;10.77;;;7.18;;
25351;SDS011;13304;48.464;8.712;2023-06-22T00:53:40;10.27;;;7.15;;
25351;SDS011;13304;48.464;8.712;2023-06-22T00:56:08;13.45;;;7.20;;
25351;SDS011;13304;48.464;8.712;2023-06-22T00:58:36;14.55;;;7.45;;
25351;SDS011;13304;48.464;8.712;2023-06-22T01:01:06;11.27;;;7.32;;
25351;SDS011;13304;48.464;8.712;2023-06-22T01:03:32;10.40;;;6.90;;
25351;SDS011;13304;48.464;8.712;2023-06-22T01:06:05;14.55;;;8.00;;
25351;SDS011;13304;48.464;8.712;2023-06-22T01:11:10;9.07;;;7.03;;
25351;SDS011;13304;48.464;8.712;2023-06-22T01:16:33;15.40;;;8.18;;
25351;SDS011;13304;48.464;8.712;2023-06-22T01:21:59;15.75;;;7.90;;
25351;SDS011;13304;48.464;8.712;2023-06-22T01:24:33;12.20;;;7.72;;
25351;SDS011;13304;48.464;8.712;2023-06-22T01:27:36;14.50;;;8.10;;
25351;SDS011;13304;48.464;8.712;2023-06-22T01:30:06;12.43;;;7.82;;
25351;SDS011;13304;48.464;8.712;2023-06-22T01:32:35;13.63;;;7.80;;
25351;SDS011;13304;48.464;8.712;2023-06-22T01:35:04;14.48;;;8.38;;
25351;SDS011;13304;48.464;8.712;2023-06-22T01:37:32;11.98;;;7.53;;
25351;SDS011;13304;48.464;8.712;2023-06-22T01:39:59;10.85;;;7.25;;
25351;SDS011;13304;48.464;8.712;2023-06-22T01:42:26;13.93;;;8.27;;
25351;SDS011;13304;48.464;8.712;2023-06-22T01:47:30;11.57;;;7.65;;
25351;SDS011;13304;48.464;8.712;2023-06-22T01:49:56;11.75;;;7.68;;
25351;SDS011;13304;48.464;8.712;2023-06-22T01:52:24;13.88;;;8.27;;
25351;SDS011;13304;48.464;8.712;2023-06-22T01:54:49;10.70;;;8.65;;
25351;SDS011;13304;48.464;8.712;2023-06-22T01:57:15;13.02;;;8.38;;
25351;SDS011;13304;48.464;8.712;2023-06-22T01:59:52;13.52;;;8.48;;
25351;SDS011;13304;48.464;8.712;2023-06-22T02:02:29;12.90;;;8.82;;
25351;SDS011;13304;48.464;8.712;2023-06-22T02:05:08;15.77;;;8.00;;
25351;SDS011;13304;48.464;8.712;2023-06-22T02:07:52;11.80;;;8.10;;
25351;SDS011;13304;48.464;8.712;2023-06-22T02:10:27;12.57;;;8.93;;
25351;SDS011;13304;48.464;8.712;2023-06-22T02:12:53;14.30;;;9.27;;
25351;SDS011;13304;48.464;8.712;2023-06-22T02:15:22;16.77;;;8.40;;
25351;SDS011;13304;48.464;8.712;2023-06-22T02:17:48;15.65;;;8.35;;
25351;SDS011;13304;48.464;8.712;2023-06-22T02:20:14;17.58;;;9.35;;
25351;SDS011;13304;48.464;8.712;2023-06-22T02:22:49;15.63;;;8.50;;
25351;SDS011;13304;48.464;8.712;2023-06-22T02:25:15;15.57;;;8.73;;
25351;SDS011;13304;48.464;8.712;2023-06-22T02:27:40;15.57;;;8.93;;
25351;SDS011;13304;48.464;8.712;2023-06-22T02:30:08;12.60;;;8.15;;
25351;SDS011;13304;48.464;8.712;2023-06-22T02:32:36;12.27;;;8.93;;
25351;SDS011;13304;48.464;8.712;2023-06-22T02:35:02;15.18;;;8.50;;
25351;SDS011;13304;48.464;8.712;2023-06-22T02:37:31;12.38;;;8.13;;
25351;SDS011;13304;48.464;8.712;2023-06-22T02:39:57;12.32;;;9.05;;
25351;SDS011;13304;48.464;8.712;2023-06-22T02:42:23;13.98;;;8.38;;
25351;SDS011;13304;48.464;8.712;2023-06-22T02:44:48;13.55;;;8.88;;
25351;SDS011;13304;48.464;8.712;2023-06-22T02:47:15;15.45;;;8.77;;
25351;SDS011;13304;48.464;8.712;2023-06-22T02:49:41;16.73;;;9.00;;
25351;SDS011;13304;48.464;8.712;2023-06-22T02:52:07;10.70;;;7.85;;
25351;SDS011;13304;48.464;8.712;2023-06-22T02:54:33;12.55;;;8.23;;
25351;SDS011;13304;48.464;8.712;2023-06-22T02:56:59;12.75;;;7.53;;
25351;SDS011;13304;48.464;8.712;2023-06-22T02:59:30;17.45;;;8.43;;
25351;SDS011;13304;48.464;8.712;2023-06-22T03:01:55;13.52;;;7.90;;
25351;SDS011;13304;48.464;8.712;2023-06-22T03:04:21;10.88;;;7.63;;
25351;SDS011;13304;48.464;8.712;2023-06-22T03:06:49;16.58;;;8.15;;
25351;SDS011;13304;48.464;8.712;2023-06-22T03:09:16;16.50;;;8.60;;
25351;SDS011;13304;48.464;8.712;2023-06-22T03:11:42;15.27;;;8.27;;
25351;SDS011;13304;48.464;8.712;2023-06-22T03:14:08;15.35;;;8.75;;
25351;SDS011;13304;48.464;8.712;2023-06-22T03:16:34;13.93;;;8.63;;
25351;SDS011;13304;48.464;8.712;2023-06-22T03:18:59;12.10;;;8.43;;
25351;SDS011;13304;48.464;8.712;2023-06-22T03:21:27;12.70;;;8.98;;
25351;SDS011;13304;48.464;8.712;2023-06-22T03:23:53;11.82;;;8.50;;
25351;SDS011;13304;48.464;8.712;2023-06-22T03:26:21;15.05;;;8.65;;
25351;SDS011;13304;48.464;8.712;2023-06-22T03:28:48;12.63;;;8.63;;
25351;SDS011;13304;48.464;8.712;2023-06-22T03:31:14;16.00;;;9.18;;
25351;SDS011;13304;48.464;8.712;2023-06-22T03:33:40;11.77;;;8.52;;
25351;SDS011;13304;48.464;8.712;2023-06-22T03:36:06;15.55;;;8.27;;
25351;SDS011;13304;48.464;8.712;2023-06-22T03:38:32;11.52;;;8.98;;
25351;SDS011;13304;48.464;8.712;2023-06-22T03:40:59;16.60;;;8.38;;
25351;SDS011;13304;48.464;8.712;2023-06-22T03:43:24;14.18;;;8.90;;
25351;SDS011;13304;48.464;8.712;2023-06-22T03:45:50;14.68;;;8.30;;
25351;SDS011;13304;48.464;8.712;2023-06-22T03:48:17;16.80;;;8.32;;
25351;SDS011;13304;48.464;8.712;2023-06-22T03:50:43;13.80;;;8.52;;
25351;SDS011;13304;48.464;8.712;2023-06-22T03:53:09;12.98;;;8.85;;
25351;SDS011;13304;48.464;8.712;2023-06-22T03:55:35;14.32;;;8.05;;
25351;SDS011;13304;48.464;8.712;2023-06-22T03:58:01;17.40;;;7.95;;
25351;SDS011;13304;48.464;8.712;2023-06-22T04:00:31;13.90;;;8.90;;
25351;SDS011;13304;48.464;8.712;2023-06-22T04:02:57;12.95;;;8.35;;
25351;SDS011;13304;48.464;8.712;2023-06-22T04:05:23;14.52;;;8.07;;
25351;SDS011;13304;48.464;8.712;2023-06-22T04:07:49;19.27;;;9.27;;
25351;SDS011;13304;48.464;8.712;2023-06-22T04:10:15;11.90;;;8.93;;
25351;SDS011;13304;48.464;8.712;2023-06-22T04:12:41;11.98;;;8.80;;
25351;SDS011;13304;48.464;8.712;2023-06-22T04:15:06;14.23;;;9.43;;
25351;SDS011;13304;48.464;8.712;2023-06-22T04:17:33;14.13;;;8.77;;
25351;SDS011;13304;48.464;8.712;2023-06-22T04:19:58;12.93;;;8.10;;
25351;SDS011;13304;48.464;8.712;2023-06-22T04:22:24;19.60;;;9.00;;
25351;SDS011;13304;48.464;8.712;2023-06-22T04:24:53;15.07;;;9.07;;
25351;SDS011;13304;48.464;8.712;2023-06-22T04:29:45;15.35;;;8.48;;
25351;SDS011;13304;48.464;8.712;2023-06-22T04:32:15;16.13;;;8.77;;
25351;SDS011;13304;48.464;8.712;2023-06-22T04:34:42;16.55;;;8.30;;
25351;SDS011;13304;48.464;8.712;2023-06-22T04:37:07;24.10;;;8.43;;
25351;SDS011;13304;48.464;8.712;2023-06-22T04:39:36;14.48;;;7.80;;
25351;SDS011;13304;48.464;8.712;2023-06-22T04:42:01;12.63;;;7.78;;
25351;SDS011;13304;48.464;8.712;2023-06-22T04:44:28;14.23;;;8.40;;
25351;SDS011;13304;48.464;8.712;2023-06-22T04:46:55;14.52;;;8.45;;
25351;SDS011;13304;48.464;8.712;2023-06-22T04:49:33;14.77;;;8.45;;
25351;SDS011;13304;48.464;8.712;2023-06-22T04:52:07;11.88;;;8.52;;
25351;SDS011;13304;48.464;8.712;2023-06-22T04:54:37;13.05;;;8.70;;
25351;SDS011;13304;48.464;8.712;2023-06-22T04:57:05;13.57;;;8.15;;
25351;SDS011;13304;48.464;8.712;2023-06-22T04:59:35;15.55;;;7.88;;
25351;SDS011;13304;48.464;8.712;2023-06-22T05:02:04;17.55;;;7.93;;
25351;SDS011;13304;48.464;8.712;2023-06-22T05:04:31;13.15;;;7.80;;
25351;SDS011;13304;48.464;8.712;2023-06-22T05:06:57;11.63;;;7.43;;
25351;SDS011;13304;48.464;8.712;2023-06-22T05:09:25;12.68;;;7.95;;
25351;SDS011;13304;48.464;8.712;2023-06-22T05:11:51;11.35;;;8.05;;
25351;SDS011;13304;48.464;8.712;2023-06-22T05:14:17;13.57;;;8.15;;
25351;SDS011;13304;48.464;8.712;2023-06-22T05:16:44;15.57;;;7.97;;
25351;SDS011;13304;48.464;8.712;2023-06-22T05:19:10;10.75;;;8.05;;
25351;SDS011;13304;48.464;8.712;2023-06-22T05:21:37;15.15;;;8.05;;
25351;SDS011;13304;48.464;8.712;2023-06-22T05:24:04;12.57;;;8.35;;
25351;SDS011;13304;48.464;8.712;2023-06-22T05:26:30;13.70;;;8.23;;
25351;SDS011;13304;48.464;8.712;2023-06-22T05:29:00;14.18;;;8.02;;
25351;SDS011;13304;48.464;8.712;2023-06-22T05:31:27;13.65;;;8.00;;
25351;SDS011;13304;48.464;8.712;2023-06-22T05:33:53;14.48;;;8.07;;
25351;SDS011;13304;48.464;8.712;2023-06-22T05:36:20;13.65;;;8.73;;
25351;SDS011;13304;48.464;8.712;2023-06-22T05:38:50;13.20;;;7.18;;
25351;SDS011;13304;48.464;8.712;2023-06-22T05:41:21;13.30;;;7.38;;
25351;SDS011;13304;48.464;8.712;2023-06-22T05:43:46;13.05;;;7.72;;
25351;SDS011;13304;48.464;8.712;2023-06-22T05:46:12;13.07;;;7.95;;
25351;SDS011;13304;48.464;8.712;2023-06-22T05:48:38;11.95;;;8.32;;
25351;SDS011;13304;48.464;8.712;2023-06-22T05:51:04;13.60;;;8.73;;
25351;SDS011;13304;48.464;8.712;2023-06-22T05:53:29;12.65;;;7.78;;
25351;SDS011;13304;48.464;8.712;2023-06-22T05:55:56;9.25;;;7.47;;
25351;SDS011;13304;48.464;8.712;2023-06-22T05:58:22;18.15;;;8.27;;
25351;SDS011;13304;48.464;8.712;2023-06-22T06:00:48;12.73;;;7.35;;
25351;SDS011;13304;48.464;8.712;2023-06-22T06:03:13;11.75;;;8.15;;
25351;SDS011;13304;48.464;8.712;2023-06-22T06:05:42;13.65;;;8.00;;
25351;SDS011;13304;48.464;8.712;2023-06-22T06:08:08;15.05;;;7.55;;
25351;SDS011;13304;48.464;8.712;2023-06-22T06:10:37;17.08;;;7.68;;
25351;SDS011;13304;48.464;8.712;2023-06-22T06:13:02;16.67;;;7.47;;
25351;SDS011;13304;48.464;8.712;2023-06-22T06:15:29;11.93;;;7.57;;
25351;SDS011;13304;48.464;8.712;2023-06-22T06:17:57;16.23;;;7.82;;
25351;SDS011;13304;48.464;8.712;2023-06-22T06:20:23;13.95;;;7.47;;
25351;SDS011;13304;48.464;8.712;2023-06-22T06:22:50;12.18;;;7.75;;
25351;SDS011;13304;48.464;8.712;2023-06-22T06:25:18;12.73;;;7.47;;
25351;SDS011;13304;48.464;8.712;2023-06-22T06:27:46;13.38;;;6.65;;
25351;SDS011;13304;48.464;8.712;2023-06-22T06:30:14;11.45;;;7.88;;
25351;SDS011;13304;48.464;8.712;2023-06-22T06:32:41;11.23;;;7.72;;
25351;SDS011;13304;48.464;8.712;2023-06-22T06:35:08;16.75;;;7.65;;
25351;SDS011;13304;48.464;8.712;2023-06-22T06:37:41;12.23;;;7.05;;
25351;SDS011;13304;48.464;8.712;2023-06-22T06:40:15;10.50;;;7.43;;
25351;SDS011;13304;48.464;8.712;2023-06-22T06:42:48;12.27;;;7.25;;
25351;SDS011;13304;48.464;8.712;2023-06-22T06:45:18;13.73;;;7.90;;
25351;SDS011;13304;48.464;8.712;2023-06-22T06:47:48;10.02;;;6.53;;
25351;SDS011;13304;48.464;8.712;2023-06-22T06:50:14;16.45;;;7.20;;
25351;SDS011;13304;48.464;8.712;2023-06-22T06:52:41;10.30;;;6.93;;
25351;SDS011;13304;48.464;8.712;2023-06-22T06:55:07;10.57;;;6.88;;
25351;SDS011;13304;48.464;8.712;2023-06-22T06:57:36;12.73;;;6.95;;
25351;SDS011;13304;48.464;8.712;2023-06-22T07:00:06;11.07;;;7.05;;
25351;SDS011;13304;48.464;8.712;2023-06-22T07:02:37;14.07;;;7.25;;
25351;SDS011;13304;48.464;8.712;2023-06-22T07:05:04;15.00;;;6.23;;
25351;SDS011;13304;48.464;8.712;2023-06-22T07:07:30;18.42;;;7.25;;
25351;SDS011;13304;48.464;8.712;2023-06-22T07:09:56;11.10;;;5.80;;
25351;SDS011;13304;48.464;8.712;2023-06-22T07:12:22;10.38;;;6.38;;
25351;SDS011;13304;48.464;8.712;2023-06-22T07:14:48;12.63;;;6.10;;
25351;SDS011;13304;48.464;8.712;2023-06-22T07:17:15;9.60;;;6.18;;
25351;SDS011;13304;48.464;8.712;2023-06-22T07:19:40;10.30;;;5.78;;
25351;SDS011;13304;48.464;8.712;2023-06-22T07:22:07;11.13;;;6.97;;
25351;SDS011;13304;48.464;8.712;2023-06-22T07:24:32;13.63;;;5.90;;
25351;SDS011;13304;48.464;8.712;2023-06-22T07:26:58;14.43;;;7.00;;
25351;SDS011;13304;48.464;8.712;2023-06-22T07:29:24;12.50;;;6.70;;
25351;SDS011;13304;48.464;8.712;2023-06-22T07:31:51;13.48;;;6.95;;
25351;SDS011;13304;48.464;8.712;2023-06-22T07:34:17;16.02;;;7.25;;
25351;SDS011;13304;48.464;8.712;2023-06-22T07:36:44;12.40;;;6.70;;
25351;SDS011;13304;48.464;8.712;2023-06-22T07:39:11;10.98;;;6.43;;
25351;SDS011;13304;48.464;8.712;2023-06-22T07:41:38;15.18;;;6.68;;
25351;SDS011;13304;48.464;8.712;2023-06-22T07:44:05;14.82;;;7.13;;
25351;SDS011;13304;48.464;8.712;2023-06-22T07:46:32;15.93;;;6.45;;
25351;SDS011;13304;48.464;8.712;2023-06-22T07:51:28;14.80;;;6.30;;
25351;SDS011;13304;48.464;8.712;2023-06-22T07:53:54;18.40;;;6.63;;
25351;SDS011;13304;48.464;8.712;2023-06-22T07:56:20;19.00;;;6.40;;
25351;SDS011;13304;48.464;8.712;2023-06-22T07:58:46;13.13;;;6.85;;
25351;SDS011;13304;48.464;8.712;2023-06-22T08:01:13;14.73;;;6.45;;
25351;SDS011;13304;48.464;8.712;2023-06-22T08:03:41;17.88;;;6.45;;
25351;SDS011;13304;48.464;8.712;2023-06-22T08:06:07;12.57;;;6.43;;
25351;SDS011;13304;48.464;8.712;2023-06-22T08:08:34;15.70;;;6.32;;
25351;SDS011;13304;48.464;8.712;2023-06-22T08:11:00;14.23;;;6.63;;
25351;SDS011;13304;48.464;8.712;2023-06-22T08:13:26;12.68;;;6.25;;
25351;SDS011;13304;48.464;8.712;2023-06-22T08:15:52;13.55;;;5.80;;
25351;SDS011;13304;48.464;8.712;2023-06-22T08:18:17;13.43;;;6.50;;
25351;SDS011;13304;48.464;8.712;2023-06-22T08:20:43;12.85;;;6.35;;
25351;SDS011;13304;48.464;8.712;2023-06-22T08:23:09;17.83;;;6.72;;
25351;SDS011;13304;48.464;8.712;2023-06-22T08:25:36;9.82;;;6.05;;
25351;SDS011;13304;48.464;8.712;2023-06-22T08:28:02;9.27;;;6.15;;
25351;SDS011;13304;48.464;8.712;2023-06-22T08:30:29;14.13;;;6.18;;
25351;SDS011;13304;48.464;8.712;2023-06-22T08:32:55;14.15;;;6.72;;
25351;SDS011;13304;48.464;8.712;2023-06-22T08:35:24;17.90;;;7.18;;
25351;SDS011;13304;48.464;8.712;2023-06-22T08:37:50;13.60;;;6.18;;
25351;SDS011;13304;48.464;8.712;2023-06-22T08:40:19;13.95;;;6.32;;
25351;SDS011;13304;48.464;8.712;2023-06-22T08:42:46;16.67;;;6.07;;
25351;SDS011;13304;48.464;8.712;2023-06-22T08:45:12;21.90;;;6.20;;
25351;SDS011;13304;48.464;8.712;2023-06-22T08:47:39;12.45;;;5.80;;
25351;SDS011;13304;48.464;8.712;2023-06-22T08:50:06;12.65;;;5.28;;
25351;SDS011;13304;48.464;8.712;2023-06-22T08:52:33;9.70;;;6.38;;
25351;SDS011;13304;48.464;8.712;2023-06-22T08:55:00;13.18;;;5.47;;
25351;SDS011;13304;48.464;8.712;2023-06-22T08:57:27;17.55;;;5.82;;
25351;SDS011;13304;48.464;8.712;2023-06-22T08:59:53;15.05;;;6.18;;
25351;SDS011;13304;48.464;8.712;2023-06-22T09:02:23;12.65;;;5.35;;
25351;SDS011;13304;48.464;8.712;2023-06-22T09:04:49;11.65;;;6.25;;
25351;SDS011;13304;48.464;8.712;2023-06-22T09:07:22;18.52;;;5.88;;
25351;SDS011;13304;48.464;8.712;2023-06-22T09:09:49;16.77;;;6.13;;
25351;SDS011;13304;48.464;8.712;2023-06-22T09:12:14;12.48;;;6.32;;
25351;SDS011;13304;48.464;8.712;2023-06-22T09:14:40;15.27;;;5.90;;
25351;SDS011;13304;48.464;8.712;2023-06-22T09:17:06;11.57;;;6.07;;
25351;SDS011;13304;48.464;8.712;2023-06-22T09:19:32;11.02;;;5.60;;
25351;SDS011;13304;48.464;8.712;2023-06-22T09:21:58;10.80;;;5.05;;
25351;SDS011;13304;48.464;8.712;2023-06-22T09:24:24;14.95;;;6.07;;
25351;SDS011;13304;48.464;8.712;2023-06-22T09:26:50;14.73;;;6.38;;
25351;SDS011;13304;48.464;8.712;2023-06-22T09:29:17;13.93;;;5.45;;
25351;SDS011;13304;48.464;8.712;2023-06-22T09:31:43;14.75;;;5.90;;
25351;SDS011;13304;48.464;8.712;2023-06-22T09:34:09;19.20;;;5.93;;
25351;SDS011;13304;48.464;8.712;2023-06-22T09:36:35;11.35;;;5.82;;
25351;SDS011;13304;48.464;8.712;2023-06-22T09:39:01;10.75;;;4.95;;
25351;SDS011;13304;48.464;8.712;2023-06-22T09:41:31;12.93;;;5.25;;
25351;SDS011;13304;48.464;8.712;2023-06-22T09:43:57;15.90;;;6.55;;
25351;SDS011;13304;48.464;8.712;2023-06-22T09:46:23;15.13;;;5.70;;
25351;SDS011;13304;48.464;8.712;2023-06-22T09:48:51;10.00;;;6.05;;
25351;SDS011;13304;48.464;8.712;2023-06-22T09:51:17;10.88;;;5.38;;
25351;SDS011;13304;48.464;8.712;2023-06-22T09:53:45;15.05;;;5.90;;
25351;SDS011;13304;48.464;8.712;2023-06-22T09:56:10;10.27;;;5.57;;
25351;SDS011;13304;48.464;8.712;2023-06-22T09:58:40;14.73;;;5.60;;
25351;SDS011;13304;48.464;8.712;2023-06-22T10:01:09;11.95;;;5.90;;
25351;SDS011;13304;48.464;8.712;2023-06-22T10:03:36;11.77;;;5.80;;
25351;SDS011;13304;48.464;8.712;2023-06-22T10:06:02;12.40;;;5.28;;
25351;SDS011;13304;48.464;8.712;2023-06-22T10:08:35;14.75;;;5.93;;
25351;SDS011;13304;48.464;8.712;2023-06-22T10:11:01;11.95;;;5.68;;
25351;SDS011;13304;48.464;8.712;2023-06-22T10:13:28;11.10;;;5.40;;
25351;SDS011;13304;48.464;8.712;2023-06-22T10:15:53;13.95;;;5.65;;
25351;SDS011;13304;48.464;8.712;2023-06-22T10:18:19;18.52;;;6.28;;
25351;SDS011;13304;48.464;8.712;2023-06-22T10:20:47;11.60;;;5.40;;
25351;SDS011;13304;48.464;8.712;2023-06-22T10:23:16;12.20;;;5.43;;
25351;SDS011;13304;48.464;8.712;2023-06-22T10:25:42;16.20;;;5.85;;
25351;SDS011;13304;48.464;8.712;2023-06-22T10:28:07;14.23;;;6.07;;
25351;SDS011;13304;48.464;8.712;2023-06-22T10:30:33;20.02;;;6.45;;
25351;SDS011;13304;48.464;8.712;2023-06-22T10:32:59;15.95;;;6.03;;
25351;SDS011;13304;48.464;8.712;2023-06-22T10:35:25;17.38;;;6.00;;
25351;SDS011;13304;48.464;8.712;2023-06-22T10:37:52;11.00;;;5.70;;
25351;SDS011;13304;48.464;8.712;2023-06-22T10:42:45;12.85;;;5.28;;
25351;SDS011;13304;48.464;8.712;2023-06-22T10:45:11;12.65;;;5.63;;
25351;SDS011;13304;48.464;8.712;2023-06-22T10:47:37;10.25;;;5.03;;
25351;SDS011;13304;48.464;8.712;2023-06-22T10:50:03;12.38;;;5.10;;
25351;SDS011;13304;48.464;8.712;2023-06-22T10:52:29;16.15;;;5.88;;
25351;SDS011;13304;48.464;8.712;2023-06-22T10:54:55;15.50;;;5.70;;
25351;SDS011;13304;48.464;8.712;2023-06-22T10:57:21;15.45;;;6.05;;
25351;SDS011;13304;48.464;8.712;2023-06-22T10:59:53;14.35;;;5.57;;
25351;SDS011;13304;48.464;8.712;2023-06-22T11:02:19;11.52;;;5.38;;
25351;SDS011;13304;48.464;8.712;2023-06-22T11:04:44;17.02;;;5.47;;
25351;SDS011;13304;48.464;8.712;2023-06-22T11:07:11;15.07;;;5.50;;
25351;SDS011;13304;48.464;8.712;2023-06-22T11:09:37;12.18;;;5.93;;
25351;SDS011;13304;48.464;8.712;2023-06-22T11:12:04;13.55;;;5.55;;
25351;SDS011;13304;48.464;8.712;2023-06-22T11:14:31;15.45;;;5.95;;
25351;SDS011;13304;48.464;8.712;2023-06-22T11:16:58;14.27;;;6.00;;
25351;SDS011;13304;48.464;8.712;2023-06-22T11:19:24;15.73;;;5.65;;
25351;SDS011;13304;48.464;8.712;2023-06-22T11:21:53;13.93;;;6.05;;
25351;SDS011;13304;48.464;8.712;2023-06-22T11:24:19;15.10;;;5.72;;
25351;SDS011;13304;48.464;8.712;2023-06-22T11:26:44;15.10;;;5.22;;
25351;SDS011;13304;48.464;8.712;2023-06-22T11:29:10;13.48;;;5.50;;
25351;SDS011;13304;48.464;8.712;2023-06-22T11:31:37;15.30;;;5.22;;
25351;SDS011;13304;48.464;8.712;2023-06-22T11:34:03;10.55;;;5.22;;
25351;SDS011;13304;48.464;8.712;2023-06-22T11:36:29;10.23;;;5.70;;
25351;SDS011;13304;48.464;8.712;2023-06-22T11:38:58;11.05;;;5.43;;
25351;SDS011;13304;48.464;8.712;2023-06-22T11:41:25;16.52;;;5.63;;
25351;SDS011;13304;48.464;8.712;2023-06-22T11:43:50;13.85;;;6.47;;
25351;SDS011;13304;48.464;8.712;2023-06-22T11:46:16;11.70;;;5.10;;
25351;SDS011;13304;48.464;8.712;2023-06-22T11:48:42;15.32;;;5.60;;
25351;SDS011;13304;48.464;8.712;2023-06-22T11:51:07;15.30;;;5.93;;
25351;SDS011;13304;48.464;8.712;2023-06-22T11:53:34;14.25;;;5.60;;
25351;SDS011;13304;48.464;8.712;2023-06-22T11:56:00;14.02;;;5.53;;
25351;SDS011;13304;48.464;8.712;2023-06-22T11:58:26;13.10;;;5.93;;
25351;SDS011;13304;48.464;8.712;2023-06-22T12:00:52;13.25;;;4.88;;
25351;SDS011;13304;48.464;8.712;2023-06-22T12:03:19;18.15;;;5.95;;
25351;SDS011;13304;48.464;8.712;2023-06-22T12:05:46;10.98;;;5.20;;
25351;SDS011;13304;48.464;8.712;2023-06-22T12:08:12;16.63;;;5.97;;
25351;SDS011;13304;48.464;8.712;2023-06-22T12:10:38;16.05;;;6.07;;
25351;SDS011;13304;48.464;8.712;2023-06-22T12:13:04;14.88;;;5.68;;
25351;SDS011;13304;48.464;8.712;2023-06-22T12:15:30;12.07;;;5.78;;
25351;SDS011;13304;48.464;8.712;2023-06-22T12:17:56;17.10;;;6.53;;
25351;SDS011;13304;48.464;8.712;2023-06-22T12:20:21;23.27;;;6.65;;
25351;SDS011;13304;48.464;8.712;2023-06-22T12:22:47;18.45;;;6.07;;
25351;SDS011;13304;48.464;8.712;2023-06-22T12:25:13;22.23;;;6.88;;
25351;SDS011;13304;48.464;8.712;2023-06-22T12:27:39;17.02;;;6.68;;
25351;SDS011;13304;48.464;8.712;2023-06-22T12:30:04;14.10;;;5.30;;
25351;SDS011;13304;48.464;8.712;2023-06-22T12:32:31;15.90;;;5.80;;
25351;SDS011;13304;48.464;8.712;2023-06-22T12:34:56;16.40;;;5.85;;
25351;SDS011;13304;48.464;8.712;2023-06-22T12:37:23;15.65;;;6.00;;
25351;SDS011;13304;48.464;8.712;2023-06-22T12:39:49;18.25;;;6.45;;
25351;SDS011;13304;48.464;8.712;2023-06-22T12:42:15;13.38;;;6.22;;
25351;SDS011;13304;48.464;8.712;2023-06-22T12:44:41;12.43;;;5.60;;
25351;SDS011;13304;48.464;8.712;2023-06-22T12:47:07;15.95;;;5.60;;
25351;SDS011;13304;48.464;8.712;2023-06-22T12:49:34;18.63;;;5.70;;
25351;SDS011;13304;48.464;8.712;2023-06-22T12:52:02;13.05;;;5.63;;
25351;SDS011;13304;48.464;8.712;2023-06-22T12:54:33;16.88;;;6.18;;
25351;SDS011;13304;48.464;8.712;2023-06-22T12:56:59;15.93;;;5.88;;
25351;SDS011;13304;48.464;8.712;2023-06-22T12:59:24;15.05;;;5.55;;
25351;SDS011;13304;48.464;8.712;2023-06-22T13:01:50;18.52;;;6.30;;
25351;SDS011;13304;48.464;8.712;2023-06-22T13:04:17;21.58;;;6.53;;
25351;SDS011;13304;48.464;8.712;2023-06-22T13:06:44;11.60;;;5.43;;
25351;SDS011;13304;48.464;8.712;2023-06-22T13:09:12;17.23;;;6.32;;
25351;SDS011;13304;48.464;8.712;2023-06-22T13:11:40;18.90;;;6.57;;
25351;SDS011;13304;48.464;8.712;2023-06-22T13:14:06;13.63;;;6.22;;
25351;SDS011;13304;48.464;8.712;2023-06-22T13:16:31;12.98;;;5.90;;
25351;SDS011;13304;48.464;8.712;2023-06-22T13:18:57;14.70;;;6.03;;
25351;SDS011;13304;48.464;8.712;2023-06-22T13:21:23;14.57;;;5.72;;
25351;SDS011;13304;48.464;8.712;2023-06-22T13:23:49;14.32;;;6.82;;
25351;SDS011;13304;48.464;8.712;2023-06-22T13:26:14;14.25;;;6.30;;
25351;SDS011;13304;48.464;8.712;2023-06-22T13:28:40;16.90;;;6.05;;
25351;SDS011;13304;48.464;8.712;2023-06-22T13:31:06;14.35;;;5.85;;
25351;SDS011;13304;48.464;8.712;2023-06-22T13:33:32;17.70;;;6.78;;
25351;SDS011;13304;48.464;8.712;2023-06-22T13:35:58;14.52;;;6.13;;
25351;SDS011;13304;48.464;8.712;2023-06-22T13:38:24;18.95;;;6.82;;
25351;SDS011;13304;48.464;8.712;2023-06-22T13:40:50;16.65;;;6.53;;
25351;SDS011;13304;48.464;8.712;2023-06-22T13:43:16;14.02;;;6.32;;
25351;SDS011;13304;48.464;8.712;2023-06-22T13:45:42;12.68;;;5.80;;
25351;SDS011;13304;48.464;8.712;2023-06-22T13:48:08;11.88;;;4.70;;
25351;SDS011;13304;48.464;8.712;2023-06-22T13:50:34;14.65;;;4.78;;
25351;SDS011;13304;48.464;8.712;2023-06-22T13:53:00;15.98;;;4.40;;
25351;SDS011;13304;48.464;8.712;2023-06-22T13:55:26;13.50;;;4.80;;
25351;SDS011;13304;48.464;8.712;2023-06-22T13:57:51;19.92;;;5.22;;
25351;SDS011;13304;48.464;8.712;2023-06-22T14:00:18;20.00;;;5.25;;
25351;SDS011;13304;48.464;8.712;2023-06-22T14:02:44;16.17;;;3.97;;
25351;SDS011;13304;48.464;8.712;2023-06-22T14:05:10;19.20;;;4.03;;
25351;SDS011;13304;48.464;8.712;2023-06-22T14:07:36;18.33;;;4.68;;
25351;SDS011;13304;48.464;8.712;2023-06-22T14:10:05;12.65;;;4.38;;
25351;SDS011;13304;48.464;8.712;2023-06-22T14:12:31;12.05;;;3.83;;
25351;SDS011;13304;48.464;8.712;2023-06-22T14:14:57;16.38;;;4.57;;
25351;SDS011;13304;48.464;8.712;2023-06-22T14:17:23;18.65;;;4.32;;
25351;SDS011;13304;48.464;8.712;2023-06-22T14:19:51;15.30;;;4.35;;
25351;SDS011;13304;48.464;8.712;2023-06-22T14:22:18;20.15;;;4.68;;
25351;SDS011;13304;48.464;8.712;2023-06-22T14:24:47;13.32;;;4.53;;
25351;SDS011;13304;48.464;8.712;2023-06-22T14:27:13;17.33;;;4.15;;
25351;SDS011;13304;48.464;8.712;2023-06-22T14:29:40;12.75;;;4.20;;
25351;SDS011;13304;48.464;8.712;2023-06-22T14:32:06;15.30;;;4.63;;
25351;SDS011;13304;48.464;8.712;2023-06-22T14:34:32;15.48;;;4.60;;
25351;SDS011;13304;48.464;8.712;2023-06-22T14:37:00;13.57;;;4.32;;
25351;SDS011;13304;48.464;8.712;2023-06-22T14:39:27;18.55;;;5.10;;
25351;SDS011;13304;48.464;8.712;2023-06-22T14:41:53;12.30;;;4.15;;
25351;SDS011;13304;48.464;8.712;2023-06-22T14:44:18;12.73;;;4.20;;
25351;SDS011;13304;48.464;8.712;2023-06-22T14:46:44;14.10;;;4.40;;
25351;SDS011;13304;48.464;8.712;2023-06-22T14:49:10;16.42;;;4.57;;
25351;SDS011;13304;48.464;8.712;2023-06-22T14:51:36;16.45;;;4.53;;
25351;SDS011;13304;48.464;8.712;2023-06-22T14:54:01;21.85;;;5.05;;